sensor_id;sensor_type;location;lat;lon;timestamp;pressure;altitude;pressure_sealevel;temperature;humidity
69411;BME280;56604;48.652;9.194;2022-12-29T00:02:10;95883.97;;;8.80;64.78
69411;BME280;56604;48.652;9.194;2022-12-29T00:04:36;95874.31;;;8.86;65.15
69411;BME280;56604;48.652;9.194;2022-12-29T00:07:01;95876.94;;;8.86;64.67
69411;BME280;56604;48.652;9.194;2022-12-29T00:09:29;95881.97;;;8.92;64.02
69411;BME280;56604;48.652;9.194;2022-12-29T00:11:55;95871.25;;;8.94;64.66
69411;BME280;56604;48.652;9.194;2022-12-29T00:14:20;95863.63;;;8.92;64.37
69411;BME280;56604;48.652;9.194;2022-12-29T00:17:04;95863.19;;;9.00;64.83
69411;BME280;56604;48.652;9.194;2022-12-29T00:19:29;95853.25;;;9.03;65.01
69411;BME280;56604;48.652;9.194;2022-12-29T00:22:14;95853.28;;;9.08;63.93
69411;BME280;56604;48.652;9.194;2022-12-29T00:24:58;95857.69;;;9.02;64.02
69411;BME280;56604;48.652;9.194;2022-12-29T00:27:42;95847.50;;;9.06;64.10
69411;BME280;56604;48.652;9.194;2022-12-29T00:30:25;95843.34;;;9.10;63.68
69411;BME280;56604;48.652;9.194;2022-12-29T00:33:15;95840.44;;;9.06;64.70
69411;BME280;56604;48.652;9.194;2022-12-29T00:36:00;95844.63;;;9.07;63.72
69411;BME280;56604;48.652;9.194;2022-12-29T00:38:27;95846.19;;;9.03;63.69
69411;BME280;56604;48.652;9.194;2022-12-29T00:41:12;95842.84;;;9.13;63.54
69411;BME280;56604;48.652;9.194;2022-12-29T00:43:56;95841.28;;;9.12;63.17
69411;BME280;56604;48.652;9.194;2022-12-29T00:46:35;95839.09;;;9.04;65.01
69411;BME280;56604;48.652;9.194;2022-12-29T00:49:01;95833.25;;;8.96;64.39
69411;BME280;56604;48.652;9.194;2022-12-29T00:51:46;95837.81;;;9.06;64.15
69411;BME280;56604;48.652;9.194;2022-12-29T00:54:12;95837.81;;;9.06;64.34
69411;BME280;56604;48.652;9.194;2022-12-29T00:56:37;95843.84;;;9.07;63.72
69411;BME280;56604;48.652;9.194;2022-12-29T00:59:05;95836.03;;;9.12;63.40
69411;BME280;56604;48.652;9.194;2022-12-29T01:01:31;95831.31;;;9.14;64.54
69411;BME280;56604;48.652;9.194;2022-12-29T01:03:56;95833.91;;;9.09;64.13
69411;BME280;56604;48.652;9.194;2022-12-29T01:06:22;95829.69;;;9.08;63.75
69411;BME280;56604;48.652;9.194;2022-12-29T01:08:48;95826.03;;;9.09;63.71
69411;BME280;56604;48.652;9.194;2022-12-29T01:11:33;95823.38;;;9.04;64.47
69411;BME280;56604;48.652;9.194;2022-12-29T01:13:58;95824.94;;;9.05;64.59
69411;BME280;56604;48.652;9.194;2022-12-29T01:16:23;95833.72;;;9.20;63.92
69411;BME280;56604;48.652;9.194;2022-12-29T01:18:49;95836.31;;;9.15;63.88
69411;BME280;56604;48.652;9.194;2022-12-29T01:21:14;95832.44;;;9.23;62.77
69411;BME280;56604;48.652;9.194;2022-12-29T01:23:39;95840.94;;;9.35;62.73
69411;BME280;56604;48.652;9.194;2022-12-29T01:26:11;95845.66;;;9.38;63.20
69411;BME280;56604;48.652;9.194;2022-12-29T01:28:38;95850.41;;;9.36;63.09
69411;BME280;56604;48.652;9.194;2022-12-29T01:31:10;95848.34;;;9.43;63.02
69411;BME280;56604;48.652;9.194;2022-12-29T01:33:36;95843.56;;;9.35;63.08
69411;BME280;56604;48.652;9.194;2022-12-29T01:36:07;95848.75;;;9.30;63.53
69411;BME280;56604;48.652;9.194;2022-12-29T01:38:33;95852.16;;;9.26;62.84
69411;BME280;56604;48.652;9.194;2022-12-29T01:40:59;95854.31;;;9.39;63.26
69411;BME280;56604;48.652;9.194;2022-12-29T01:43:47;95853.31;;;9.40;62.75
69411;BME280;56604;48.652;9.194;2022-12-29T01:48:47;95852.34;;;9.51;63.25
69411;BME280;56604;48.652;9.194;2022-12-29T01:51:15;95844.66;;;9.44;62.28
69411;BME280;56604;48.652;9.194;2022-12-29T01:53:42;95846.81;;;9.53;62.53
69411;BME280;56604;48.652;9.194;2022-12-29T01:56:10;95840.06;;;9.62;61.75
69411;BME280;56604;48.652;9.194;2022-12-29T01:58:40;95844.28;;;9.63;62.10
69411;BME280;56604;48.652;9.194;2022-12-29T02:01:06;95840.41;;;9.71;61.60
69411;BME280;56604;48.652;9.194;2022-12-29T02:03:33;95844.59;;;9.72;61.18
69411;BME280;56604;48.652;9.194;2022-12-29T02:06:22;95839.06;;;9.68;61.37
69411;BME280;56604;48.652;9.194;2022-12-29T02:08:50;95835.91;;;9.66;61.78
69411;BME280;56604;48.652;9.194;2022-12-29T02:11:18;95830.16;;;9.69;61.67
69411;BME280;56604;48.652;9.194;2022-12-29T02:13:44;95834.34;;;9.65;61.58
69411;BME280;56604;48.652;9.194;2022-12-29T02:19:06;95826.16;;;9.56;62.08
69411;BME280;56604;48.652;9.194;2022-12-29T02:21:56;95836.66;;;9.56;61.68
69411;BME280;56604;48.652;9.194;2022-12-29T02:24:55;95836.91;;;9.60;61.88
69411;BME280;56604;48.652;9.194;2022-12-29T02:35:33;95831.19;;;9.68;60.86
69411;BME280;56604;48.652;9.194;2022-12-29T02:43:41;95829.66;;;9.72;61.27
69411;BME280;56604;48.652;9.194;2022-12-29T02:46:28;95830.94;;;9.69;61.72
69411;BME280;56604;48.652;9.194;2022-12-29T02:49:12;95822.50;;;9.67;61.60
69411;BME280;56604;48.652;9.194;2022-12-29T02:51:52;95822.78;;;9.66;61.95
69411;BME280;56604;48.652;9.194;2022-12-29T02:54:20;95817.50;;;9.61;62.09
69411;BME280;56604;48.652;9.194;2022-12-29T02:59:45;95810.44;;;9.66;61.75
69411;BME280;56604;48.652;9.194;2022-12-29T03:13:25;95810.97;;;9.63;61.63
69411;BME280;56604;48.652;9.194;2022-12-29T03:16:13;95809.16;;;9.69;61.06
69411;BME280;56604;48.652;9.194;2022-12-29T03:19:00;95817.56;;;9.71;61.46
69411;BME280;56604;48.652;9.194;2022-12-29T03:21:50;95799.72;;;9.73;61.29
69411;BME280;56604;48.652;9.194;2022-12-29T03:24:44;95793.94;;;9.71;61.58
69411;BME280;56604;48.652;9.194;2022-12-29T03:27:15;95801.31;;;9.74;61.93
69411;BME280;56604;48.652;9.194;2022-12-29T03:29:47;95795.03;;;9.80;61.62
69411;BME280;56604;48.652;9.194;2022-12-29T03:32:18;95798.22;;;9.82;62.06
69411;BME280;56604;48.652;9.194;2022-12-29T03:34:46;95786.13;;;9.81;62.04
69411;BME280;56604;48.652;9.194;2022-12-29T03:37:15;95772.50;;;9.89;61.93
69411;BME280;56604;48.652;9.194;2022-12-29T03:39:42;95770.16;;;9.88;61.93
69411;BME280;56604;48.652;9.194;2022-12-29T03:42:12;95764.13;;;9.93;62.50
69411;BME280;56604;48.652;9.194;2022-12-29T03:44:40;95774.66;;;9.98;61.84
69411;BME280;56604;48.652;9.194;2022-12-29T03:47:07;95779.09;;;9.97;62.30
69411;BME280;56604;48.652;9.194;2022-12-29T03:49:33;95769.41;;;9.98;62.02
69411;BME280;56604;48.652;9.194;2022-12-29T03:51:59;95769.34;;;9.87;62.33
69411;BME280;56604;48.652;9.194;2022-12-29T03:54:24;95770.94;;;9.88;62.46
69411;BME280;56604;48.652;9.194;2022-12-29T03:56:50;95750.72;;;9.89;62.51
69411;BME280;56604;48.652;9.194;2022-12-29T03:59:15;95759.91;;;9.91;63.11
69411;BME280;56604;48.652;9.194;2022-12-29T04:01:41;95756.75;;;9.89;62.53
69411;BME280;56604;48.652;9.194;2022-12-29T04:04:06;95748.88;;;9.89;62.19
69411;BME280;56604;48.652;9.194;2022-12-29T04:06:31;95752.56;;;9.88;62.74
69411;BME280;56604;48.652;9.194;2022-12-29T04:08:57;95752.28;;;9.90;63.17
69411;BME280;56604;48.652;9.194;2022-12-29T04:11:22;95770.38;;;9.86;63.19
69411;BME280;56604;48.652;9.194;2022-12-29T04:13:47;95773.78;;;9.77;63.40
69411;BME280;56604;48.652;9.194;2022-12-29T04:16:13;95774.28;;;9.74;63.96
69411;BME280;56604;48.652;9.194;2022-12-29T04:18:38;95769.78;;;9.69;64.17
69411;BME280;56604;48.652;9.194;2022-12-29T04:21:04;95787.56;;;9.62;63.79
69411;BME280;56604;48.652;9.194;2022-12-29T04:23:32;95781.78;;;9.55;64.35
69411;BME280;56604;48.652;9.194;2022-12-29T04:25:58;95782.81;;;9.54;64.68
69411;BME280;56604;48.652;9.194;2022-12-29T04:28:23;95788.59;;;9.51;64.25
69411;BME280;56604;48.652;9.194;2022-12-29T04:30:49;95787.25;;;9.48;64.85
69411;BME280;56604;48.652;9.194;2022-12-29T04:33:15;95794.84;;;9.50;65.21
69411;BME280;56604;48.652;9.194;2022-12-29T04:35:41;95789.59;;;9.50;64.53
69411;BME280;56604;48.652;9.194;2022-12-29T04:38:07;95791.41;;;9.44;64.82
69411;BME280;56604;48.652;9.194;2022-12-29T04:40:32;95786.94;;;9.44;64.76
69411;BME280;56604;48.652;9.194;2022-12-29T04:42:57;95777.50;;;9.43;65.44
69411;BME280;56604;48.652;9.194;2022-12-29T04:45:23;95779.06;;;9.44;65.43
69411;BME280;56604;48.652;9.194;2022-12-29T04:47:48;95778.78;;;9.41;65.91
69411;BME280;56604;48.652;9.194;2022-12-29T04:50:13;95770.41;;;9.44;65.09
69411;BME280;56604;48.652;9.194;2022-12-29T04:52:39;95784.31;;;9.39;65.24
69411;BME280;56604;48.652;9.194;2022-12-29T04:55:05;95783.00;;;9.42;65.47
69411;BME280;56604;48.652;9.194;2022-12-29T04:57:30;95781.97;;;9.43;65.79
69411;BME280;56604;48.652;9.194;2022-12-29T04:59:55;95790.06;;;9.36;65.64
69411;BME280;56604;48.652;9.194;2022-12-29T05:02:21;95783.22;;;9.35;65.55
69411;BME280;56604;48.652;9.194;2022-12-29T05:04:46;95790.34;;;9.40;65.47
69411;BME280;56604;48.652;9.194;2022-12-29T05:07:12;95799.25;;;9.39;64.85
69411;BME280;56604;48.652;9.194;2022-12-29T05:09:37;95789.28;;;9.41;65.20
69411;BME280;56604;48.652;9.194;2022-12-29T05:12:03;95800.84;;;9.40;65.43
69411;BME280;56604;48.652;9.194;2022-12-29T05:14:29;95799.75;;;9.36;66.10
69411;BME280;56604;48.652;9.194;2022-12-29T05:16:54;95797.63;;;9.33;65.65
69411;BME280;56604;48.652;9.194;2022-12-29T05:19:19;95783.25;;;9.40;64.93
69411;BME280;56604;48.652;9.194;2022-12-29T05:21:45;95803.78;;;9.49;65.03
69411;BME280;56604;48.652;9.194;2022-12-29T05:24:10;95789.09;;;9.53;65.74
69411;BME280;56604;48.652;9.194;2022-12-29T05:26:35;95794.84;;;9.50;65.32
69411;BME280;56604;48.652;9.194;2022-12-29T05:29:01;95796.88;;;9.37;65.43
69411;BME280;56604;48.652;9.194;2022-12-29T05:31:27;95794.75;;;9.34;65.60
69411;BME280;56604;48.652;9.194;2022-12-29T05:33:52;95792.59;;;9.26;65.83
69411;BME280;56604;48.652;9.194;2022-12-29T05:36:18;95803.06;;;9.21;65.48
69411;BME280;56604;48.652;9.194;2022-12-29T05:38:43;95795.13;;;9.11;65.67
69411;BME280;56604;48.652;9.194;2022-12-29T05:41:09;95801.88;;;9.07;66.11
69411;BME280;56604;48.652;9.194;2022-12-29T05:43:34;95803.94;;;8.99;65.84
69411;BME280;56604;48.652;9.194;2022-12-29T05:46:00;95794.28;;;9.05;65.98
69411;BME280;56604;48.652;9.194;2022-12-29T05:48:25;95795.13;;;9.16;65.81
69411;BME280;56604;48.652;9.194;2022-12-29T05:50:51;95796.75;;;9.17;65.96
69411;BME280;56604;48.652;9.194;2022-12-29T05:53:17;95796.75;;;9.17;64.95
69411;BME280;56604;48.652;9.194;2022-12-29T05:55:44;95793.72;;;9.35;65.21
69411;BME280;56604;48.652;9.194;2022-12-29T05:58:09;95791.34;;;9.34;65.44
69411;BME280;56604;48.652;9.194;2022-12-29T06:00:34;95787.41;;;9.31;65.87
69411;BME280;56604;48.652;9.194;2022-12-29T06:03:00;95787.97;;;9.38;64.62
69411;BME280;56604;48.652;9.194;2022-12-29T06:05:25;95788.69;;;9.29;65.33
69411;BME280;56604;48.652;9.194;2022-12-29T06:07:51;95785.38;;;9.43;64.90
69411;BME280;56604;48.652;9.194;2022-12-29T06:10:16;95775.91;;;9.37;64.31
69411;BME280;56604;48.652;9.194;2022-12-29T06:12:41;95783.53;;;9.44;63.21
69411;BME280;56604;48.652;9.194;2022-12-29T06:15:07;95768.06;;;9.42;63.63
69411;BME280;56604;48.652;9.194;2022-12-29T06:17:33;95770.16;;;9.40;63.74
69411;BME280;56604;48.652;9.194;2022-12-29T06:19:58;95776.97;;;9.41;63.37
69411;BME280;56604;48.652;9.194;2022-12-29T06:22:24;95774.59;;;9.40;63.31
69411;BME280;56604;48.652;9.194;2022-12-29T06:24:49;95764.91;;;9.40;63.70
69411;BME280;56604;48.652;9.194;2022-12-29T06:27:14;95768.53;;;9.34;64.51
69411;BME280;56604;48.652;9.194;2022-12-29T06:29:40;95766.91;;;9.28;64.10
69411;BME280;56604;48.652;9.194;2022-12-29T06:32:06;95778.94;;;9.24;64.71
69411;BME280;56604;48.652;9.194;2022-12-29T06:34:31;95779.16;;;9.17;65.13
69411;BME280;56604;48.652;9.194;2022-12-29T06:36:56;95783.34;;;9.18;65.19
69411;BME280;56604;48.652;9.194;2022-12-29T06:39:22;95785.75;;;9.20;65.01
69411;BME280;56604;48.652;9.194;2022-12-29T06:41:47;95777.94;;;9.30;64.82
69411;BME280;56604;48.652;9.194;2022-12-29T06:44:12;95784.78;;;9.31;65.50
69411;BME280;56604;48.652;9.194;2022-12-29T06:46:37;95785.28;;;9.33;65.28
69411;BME280;56604;48.652;9.194;2022-12-29T06:49:03;95784.56;;;9.38;65.24
69411;BME280;56604;48.652;9.194;2022-12-29T06:51:28;95779.59;;;9.41;65.20
69411;BME280;56604;48.652;9.194;2022-12-29T06:53:53;95771.78;;;9.52;64.56
69411;BME280;56604;48.652;9.194;2022-12-29T06:56:19;95773.31;;;9.48;65.09
69411;BME280;56604;48.652;9.194;2022-12-29T06:58:44;95779.38;;;9.53;64.70
69411;BME280;56604;48.652;9.194;2022-12-29T07:01:09;95773.97;;;9.65;64.10
69411;BME280;56604;48.652;9.194;2022-12-29T07:03:34;95772.91;;;9.66;64.78
69411;BME280;56604;48.652;9.194;2022-12-29T07:06:00;95756.94;;;9.73;64.78
69411;BME280;56604;48.652;9.194;2022-12-29T07:08:25;95757.78;;;9.83;64.67
69411;BME280;56604;48.652;9.194;2022-12-29T07:10:50;95761.16;;;10.37;66.48
69411;BME280;56604;48.652;9.194;2022-12-29T07:13:16;95765.22;;;10.02;64.33
69411;BME280;56604;48.652;9.194;2022-12-29T07:15:41;95765.47;;;10.00;63.85
69411;BME280;56604;48.652;9.194;2022-12-29T07:18:07;95772.03;;;9.98;64.38
69411;BME280;56604;48.652;9.194;2022-12-29T07:20:32;95768.31;;;9.88;64.57
69411;BME280;56604;48.652;9.194;2022-12-29T07:22:57;95761.97;;;9.79;64.97
69411;BME280;56604;48.652;9.194;2022-12-29T07:25:23;95768.53;;;9.77;64.85
69411;BME280;56604;48.652;9.194;2022-12-29T07:27:49;95768.34;;;9.94;63.86
69411;BME280;56604;48.652;9.194;2022-12-29T07:30:14;95763.56;;;9.85;64.17
69411;BME280;56604;48.652;9.194;2022-12-29T07:32:40;95762.00;;;9.89;64.63
69411;BME280;56604;48.652;9.194;2022-12-29T07:35:06;95764.59;;;9.84;65.16
69411;BME280;56604;48.652;9.194;2022-12-29T07:37:31;95774.06;;;9.85;64.97
69411;BME280;56604;48.652;9.194;2022-12-29T07:39:57;95791.91;;;9.83;65.55
69411;BME280;56604;48.652;9.194;2022-12-29T07:42:22;95785.66;;;9.95;64.17
69411;BME280;56604;48.652;9.194;2022-12-29T07:44:47;95777.25;;;9.93;64.78
69411;BME280;56604;48.652;9.194;2022-12-29T07:47:13;95779.09;;;9.97;65.03
69411;BME280;56604;48.652;9.194;2022-12-29T07:49:38;95773.59;;;9.99;64.48
69411;BME280;56604;48.652;9.194;2022-12-29T07:52:03;95778.31;;;9.97;65.14
69411;BME280;56604;48.652;9.194;2022-12-29T07:54:29;95792.03;;;10.09;63.90
69411;BME280;56604;48.652;9.194;2022-12-29T07:56:54;95785.19;;;10.13;64.59
69411;BME280;56604;48.652;9.194;2022-12-29T07:59:19;95784.97;;;10.14;65.15
69411;BME280;56604;48.652;9.194;2022-12-29T08:01:45;95783.16;;;10.25;63.85
69411;BME280;56604;48.652;9.194;2022-12-29T08:04:10;95782.69;;;10.33;63.65
69411;BME280;56604;48.652;9.194;2022-12-29T08:06:36;95776.13;;;10.36;63.80
69411;BME280;56604;48.652;9.194;2022-12-29T08:09:03;95788.47;;;10.41;63.82
69411;BME280;56604;48.652;9.194;2022-12-29T08:11:28;95778.25;;;10.44;63.57
69411;BME280;56604;48.652;9.194;2022-12-29T08:13:54;95789.31;;;10.51;63.43
69411;BME280;56604;48.652;9.194;2022-12-29T08:16:19;95782.75;;;10.54;63.28
69411;BME280;56604;48.652;9.194;2022-12-29T08:18:44;95790.91;;;10.57;63.84
69411;BME280;56604;48.652;9.194;2022-12-29T08:21:10;95792.75;;;10.57;63.46
69411;BME280;56604;48.652;9.194;2022-12-29T08:23:36;95801.97;;;10.65;63.21
69411;BME280;56604;48.652;9.194;2022-12-29T08:26:03;95801.69;;;10.66;62.68
69411;BME280;56604;48.652;9.194;2022-12-29T08:28:29;95809.03;;;10.64;62.96
69411;BME280;56604;48.652;9.194;2022-12-29T08:30:57;95801.69;;;10.71;62.63
69411;BME280;56604;48.652;9.194;2022-12-29T08:33:23;95801.72;;;10.76;62.22
69411;BME280;56604;48.652;9.194;2022-12-29T08:35:48;95795.13;;;10.84;61.50
69411;BME280;56604;48.652;9.194;2022-12-29T08:38:14;95804.63;;;10.85;62.11
69411;BME280;56604;48.652;9.194;2022-12-29T08:40:40;95801.19;;;10.90;61.97
69411;BME280;56604;48.652;9.194;2022-12-29T08:43:05;95805.94;;;10.93;61.84
69411;BME280;56604;48.652;9.194;2022-12-29T08:45:31;95799.13;;;10.97;61.52
69411;BME280;56604;48.652;9.194;2022-12-29T08:47:56;95799.13;;;11.02;61.08
69411;BME280;56604;48.652;9.194;2022-12-29T08:50:22;95803.28;;;10.93;61.18
69411;BME280;56604;48.652;9.194;2022-12-29T08:52:47;95802.00;;;11.00;60.96
69411;BME280;56604;48.652;9.194;2022-12-29T08:55:12;95804.91;;;10.99;61.05
69411;BME280;56604;48.652;9.194;2022-12-29T08:57:38;95804.63;;;10.95;61.36
69411;BME280;56604;48.652;9.194;2022-12-29T09:00:04;95799.13;;;10.97;61.08
69411;BME280;56604;48.652;9.194;2022-12-29T09:02:29;95805.94;;;10.88;61.10
69411;BME280;56604;48.652;9.194;2022-12-29T09:04:55;95809.09;;;10.79;61.65
69411;BME280;56604;48.652;9.194;2022-12-29T09:07:22;95804.84;;;10.78;61.25
69411;BME280;56604;48.652;9.194;2022-12-29T09:09:48;95813.25;;;10.75;61.82
69411;BME280;56604;48.652;9.194;2022-12-29T09:12:15;95824.06;;;10.79;61.60
69411;BME280;56604;48.652;9.194;2022-12-29T09:14:40;95824.34;;;10.88;60.94
69411;BME280;56604;48.652;9.194;2022-12-29T09:17:07;95836.97;;;10.86;60.93
69411;BME280;56604;48.652;9.194;2022-12-29T09:19:51;95835.91;;;10.92;61.29
69411;BME280;56604;48.652;9.194;2022-12-29T09:22:17;95833.81;;;10.94;61.35
69411;BME280;56604;48.652;9.194;2022-12-29T09:24:43;95831.22;;;10.99;60.72
69411;BME280;56604;48.652;9.194;2022-12-29T09:27:09;95840.66;;;10.95;60.60
69411;BME280;56604;48.652;9.194;2022-12-29T09:29:34;95831.19;;;10.94;60.75
69411;BME280;56604;48.652;9.194;2022-12-29T09:32:00;95834.88;;;10.98;61.17
69411;BME280;56604;48.652;9.194;2022-12-29T09:34:25;95849.09;;;10.97;60.76
69411;BME280;56604;48.652;9.194;2022-12-29T09:36:51;95854.06;;;11.03;60.42
69411;BME280;56604;48.652;9.194;2022-12-29T09:39:16;95850.66;;;10.98;60.87
69411;BME280;56604;48.652;9.194;2022-12-29T09:47:11;95852.53;;;11.23;61.65
69411;BME280;56604;48.652;9.194;2022-12-29T09:49:46;95851.75;;;11.28;61.23
69411;BME280;56604;48.652;9.194;2022-12-29T09:52:18;95838.59;;;11.28;61.50
69411;BME280;56604;48.652;9.194;2022-12-29T09:57:17;95838.06;;;11.51;61.13
69411;BME280;56604;48.652;9.194;2022-12-29T09:59:46;95837.25;;;11.61;61.69
69411;BME280;56604;48.652;9.194;2022-12-29T10:02:23;95837.00;;;11.73;61.62
69411;BME280;56604;48.652;9.194;2022-12-29T10:04:51;95833.56;;;11.52;62.03
69411;BME280;56604;48.652;9.194;2022-12-29T10:07:34;95831.75;;;11.37;62.76
69411;BME280;56604;48.652;9.194;2022-12-29T10:15:39;95832.53;;;11.32;63.05
69411;BME280;56604;48.652;9.194;2022-12-29T10:21:14;95838.06;;;11.25;63.90
69411;BME280;56604;48.652;9.194;2022-12-29T10:23:52;95839.63;;;11.32;63.35
69411;BME280;56604;48.652;9.194;2022-12-29T10:26:21;95842.25;;;11.26;63.42
69411;BME280;56604;48.652;9.194;2022-12-29T10:31:24;95839.38;;;11.38;64.41
69411;BME280;56604;48.652;9.194;2022-12-29T10:34:00;95841.22;;;11.43;64.09
69411;BME280;56604;48.652;9.194;2022-12-29T10:36:40;95844.91;;;11.42;63.56
69411;BME280;56604;48.652;9.194;2022-12-29T10:42:04;95834.91;;;11.49;63.10
69411;BME280;56604;48.652;9.194;2022-12-29T10:44:34;95837.03;;;11.47;63.48
69411;BME280;56604;48.652;9.194;2022-12-29T10:47:07;95834.38;;;11.62;62.84
69411;BME280;56604;48.652;9.194;2022-12-29T10:49:40;95840.69;;;11.46;63.74
69411;BME280;56604;48.652;9.194;2022-12-29T10:52:06;95831.22;;;11.50;63.57
69411;BME280;56604;48.652;9.194;2022-12-29T10:57:26;95844.88;;;11.52;63.23
69411;BME280;56604;48.652;9.194;2022-12-29T10:59:52;95838.06;;;11.41;63.53
69411;BME280;56604;48.652;9.194;2022-12-29T11:07:34;95845.69;;;11.63;63.87
69411;BME280;56604;48.652;9.194;2022-12-29T11:10:30;95852.78;;;11.57;63.28
69411;BME280;56604;48.652;9.194;2022-12-29T11:13:25;95850.41;;;11.66;63.27
69411;BME280;56604;48.652;9.194;2022-12-29T11:15:51;95843.31;;;11.71;64.58
69411;BME280;56604;48.652;9.194;2022-12-29T11:18:32;95848.34;;;11.53;64.10
69411;BME280;56604;48.652;9.194;2022-12-29T11:21:00;95858.84;;;11.58;63.98
69411;BME280;56604;48.652;9.194;2022-12-29T11:23:31;95856.75;;;11.60;64.45
69411;BME280;56604;48.652;9.194;2022-12-29T11:28:43;95863.59;;;11.51;65.47
69411;BME280;56604;48.652;9.194;2022-12-29T11:31:10;95857.00;;;11.48;66.07
69411;BME280;56604;48.652;9.194;2022-12-29T11:33:37;95864.13;;;11.27;66.27
69411;BME280;56604;48.652;9.194;2022-12-29T11:36:16;95865.69;;;11.38;66.34
69411;BME280;56604;48.652;9.194;2022-12-29T11:38:46;95867.53;;;11.28;66.28
69411;BME280;56604;48.652;9.194;2022-12-29T11:41:13;95868.56;;;11.26;67.47
69411;BME280;56604;48.652;9.194;2022-12-29T11:43:45;95860.69;;;11.42;68.31
69411;BME280;56604;48.652;9.194;2022-12-29T11:46:26;95861.75;;;11.31;69.20
69411;BME280;56604;48.652;9.194;2022-12-29T11:48:53;95866.47;;;11.29;68.94
69411;BME280;56604;48.652;9.194;2022-12-29T11:51:27;95861.75;;;11.31;69.06
69411;BME280;56604;48.652;9.194;2022-12-29T11:53:57;95853.84;;;11.56;68.71
69411;BME280;56604;48.652;9.194;2022-12-29T11:56:39;95859.13;;;11.31;68.91
69411;BME280;56604;48.652;9.194;2022-12-29T11:59:35;95858.88;;;11.47;68.86
69411;BME280;56604;48.652;9.194;2022-12-29T12:02:15;95854.63;;;11.21;69.65
69411;BME280;56604;48.652;9.194;2022-12-29T12:04:51;95852.25;;;11.30;69.62
69411;BME280;56604;48.652;9.194;2022-12-29T12:07:29;95845.41;;;11.18;70.42
69411;BME280;56604;48.652;9.194;2022-12-29T12:10:01;95835.44;;;11.25;70.11
69411;BME280;56604;48.652;9.194;2022-12-29T12:12:33;95838.31;;;11.09;70.99
69411;BME280;56604;48.652;9.194;2022-12-29T12:15:02;95836.22;;;11.11;70.47
69411;BME280;56604;48.652;9.194;2022-12-29T12:20:26;95847.50;;;11.06;71.37
69411;BME280;56604;48.652;9.194;2022-12-29T12:23:02;95840.16;;;11.08;71.70
69411;BME280;56604;48.652;9.194;2022-12-29T12:28:40;95843.84;;;11.17;72.38
69411;BME280;56604;48.652;9.194;2022-12-29T12:31:18;95842.78;;;11.29;72.13
69411;BME280;56604;48.652;9.194;2022-12-29T12:33:48;95835.97;;;11.33;72.37
69411;BME280;56604;48.652;9.194;2022-12-29T12:36:30;95843.84;;;11.48;73.14
69411;BME280;56604;48.652;9.194;2022-12-29T12:53:03;95825.19;;;11.19;74.58
69411;BME280;56604;48.652;9.194;2022-12-29T12:58:58;95820.44;;;11.26;74.06
69411;BME280;56604;48.652;9.194;2022-12-29T13:09:48;95809.09;;;11.46;72.72
69411;BME280;56604;48.652;9.194;2022-12-29T13:12:29;95805.41;;;11.26;72.86
69411;BME280;56604;48.652;9.194;2022-12-29T13:20:36;95810.69;;;11.26;72.79
69411;BME280;56604;48.652;9.194;2022-12-29T13:23:24;95808.59;;;11.39;72.62
69411;BME280;56604;48.652;9.194;2022-12-29T13:28:31;95813.84;;;11.29;73.08
69411;BME280;56604;48.652;9.194;2022-12-29T13:36:44;95812.25;;;11.38;73.21
69411;BME280;56604;48.652;9.194;2022-12-29T13:39:17;95806.47;;;11.00;74.15
69411;BME280;56604;48.652;9.194;2022-12-29T13:41:54;95816.50;;;11.13;74.22
69411;BME280;56604;48.652;9.194;2022-12-29T13:44:43;95809.09;;;10.95;74.47
69411;BME280;56604;48.652;9.194;2022-12-29T13:47:20;95813.59;;;11.05;74.48
69411;BME280;56604;48.652;9.194;2022-12-29T13:49:47;95808.56;;;11.18;73.92
69411;BME280;56604;48.652;9.194;2022-12-29T13:52:25;95812.28;;;11.17;74.30
69411;BME280;56604;48.652;9.194;2022-12-29T13:55:07;95807.28;;;11.31;73.88
69411;BME280;56604;48.652;9.194;2022-12-29T13:57:49;95801.22;;;11.20;73.97
69411;BME280;56604;48.652;9.194;2022-12-29T14:00:19;95798.34;;;11.22;74.27
69411;BME280;56604;48.652;9.194;2022-12-29T14:07:42;95810.19;;;11.24;74.47
69411;BME280;56604;48.652;9.194;2022-12-29T14:10:27;95797.53;;;11.26;73.46
69411;BME280;56604;48.652;9.194;2022-12-29T14:13:09;95788.59;;;11.22;73.29
69411;BME280;56604;48.652;9.194;2022-12-29T14:15:41;95797.00;;;11.50;72.91
69411;BME280;56604;48.652;9.194;2022-12-29T14:31:03;95796.47;;;10.87;74.12
69411;BME280;56604;48.652;9.194;2022-12-29T14:33:31;95794.88;;;10.75;74.68
69411;BME280;56604;48.652;9.194;2022-12-29T14:36:19;95807.50;;;10.73;75.32
69411;BME280;56604;48.652;9.194;2022-12-29T14:38:46;95804.88;;;10.73;74.71
69411;BME280;56604;48.652;9.194;2022-12-29T14:44:19;95809.56;;;10.56;75.45
69411;BME280;56604;48.652;9.194;2022-12-29T14:49:17;95816.88;;;10.49;75.37
69411;BME280;56604;48.652;9.194;2022-12-29T14:51:45;95819.22;;;10.40;75.79
69411;BME280;56604;48.652;9.194;2022-12-29T14:54:47;95824.22;;;10.37;75.89
69411;BME280;56604;48.652;9.194;2022-12-29T14:57:37;95815.72;;;10.24;76.57
69411;BME280;56604;48.652;9.194;2022-12-29T15:00:15;95818.34;;;10.24;76.43
69411;BME280;56604;48.652;9.194;2022-12-29T15:02:45;95832.22;;;10.14;77.13
69411;BME280;56604;48.652;9.194;2022-12-29T15:05:51;95814.84;;;10.03;77.01
69411;BME280;56604;48.652;9.194;2022-12-29T15:08:28;95819.31;;;10.03;76.70
69411;BME280;56604;48.652;9.194;2022-12-29T15:11:00;95823.53;;;10.09;76.65
69411;BME280;56604;48.652;9.194;2022-12-29T15:13:37;95818.03;;;10.16;76.43
69411;BME280;56604;48.652;9.194;2022-12-29T15:16:04;95814.59;;;10.10;75.98
69411;BME280;56604;48.652;9.194;2022-12-29T15:18:31;95810.94;;;10.11;75.99
69411;BME280;56604;48.652;9.194;2022-12-29T15:21:00;95810.41;;;10.09;75.64
69411;BME280;56604;48.652;9.194;2022-12-29T15:23:26;95805.13;;;10.04;75.75
69411;BME280;56604;48.652;9.194;2022-12-29T15:25:57;95798.03;;;9.99;75.61
69411;BME280;56604;48.652;9.194;2022-12-29T15:28:24;95804.63;;;10.07;74.94
69411;BME280;56604;48.652;9.194;2022-12-29T15:31:02;95809.06;;;9.96;75.32
69411;BME280;56604;48.652;9.194;2022-12-29T15:33:28;95813.28;;;10.02;75.38
69411;BME280;56604;48.652;9.194;2022-12-29T15:35:56;95806.22;;;10.08;74.38